Time;durP1;ratioP1;P1;durP2;ratioP2;P2;SDS_P1;SDS_P2;PMS_P1;PMS_P2;Temp;Humidity;BMP_temperature;BMP_pressure;BME280_temperature;BME280_humidity;BME280_pressure;Samples;Min_cycle;Max_cycle;Signal;HPM_P1;HPM_P2
2024/01/29 00:00:03;;;;;;;655.83;259.85;;;-1.30;99.90;;;;;;5097608;28;20024;-57
2024/01/29 00:02:35;;;;;;;698.63;270.55;;;-1.30;99.90;;;;;;5097221;28;20040;-57
2024/01/29 00:05:01;;;;;;;547.58;216.45;;;-1.30;99.90;;;;;;5097165;28;20101;-57
2024/01/29 00:07:27;;;;;;;522.13;202.77;;;-1.30;99.90;;;;;;5097034;28;20028;-57
2024/01/29 00:09:52;;;;;;;484.63;190.40;;;-1.40;99.90;;;;;;5097029;28;20046;-57
2024/01/29 00:12:18;;;;;;;450.70;178.27;;;-1.40;99.90;;;;;;5096964;28;20055;-57
2024/01/29 00:14:45;;;;;;;426.00;169.88;;;-1.50;99.90;;;;;;5097401;28;20378;-57
2024/01/29 00:17:11;;;;;;;448.73;171.82;;;-1.50;99.90;;;;;;5096717;28;20115;-57
2024/01/29 00:19:36;;;;;;;386.20;154.48;;;-1.60;99.90;;;;;;5097178;28;20430;-57
2024/01/29 00:22:02;;;;;;;351.75;146.23;;;-1.60;99.90;;;;;;5097180;28;20472;-57
2024/01/29 00:24:28;;;;;;;335.58;140.00;;;-1.50;99.90;;;;;;5096852;28;20086;-57
2024/01/29 00:26:54;;;;;;;281.73;118.40;;;-1.60;99.90;;;;;;5096767;28;20036;-57
2024/01/29 00:29:20;;;;;;;280.08;115.22;;;-1.60;99.90;;;;;;5096677;28;20039;-57
2024/01/29 00:31:46;;;;;;;279.63;115.20;;;-1.70;99.90;;;;;;5096687;28;20389;-57
2024/01/29 00:34:12;;;;;;;271.55;114.00;;;-1.70;99.90;;;;;;5096619;28;20031;-57
2024/01/29 00:36:38;;;;;;;261.50;109.03;;;-1.70;99.90;;;;;;5096543;28;20099;-57
2024/01/29 00:39:08;;;;;;;259.60;110.80;;;-1.70;99.90;;;;;;5095115;28;20074;-57
2024/01/29 00:41:37;;;;;;;275.83;118.32;;;-1.70;99.90;;;;;;5096590;28;20419;-57
2024/01/29 00:44:03;;;;;;;295.77;117.47;;;-1.70;99.90;;;;;;5096142;28;20055;-57
2024/01/29 00:46:29;;;;;;;280.70;115.65;;;-1.70;99.90;;;;;;5096281;28;20036;-57
2024/01/29 00:48:55;;;;;;;262.67;113.53;;;-1.70;99.90;;;;;;5096317;28;20084;-57
2024/01/29 00:51:21;;;;;;;246.50;103.53;;;-1.70;99.90;;;;;;5096308;28;20226;-57
2024/01/29 00:53:47;;;;;;;261.35;108.03;;;-1.80;99.90;;;;;;5096280;28;20064;-57
2024/01/29 00:56:13;;;;;;;258.17;105.00;;;-1.90;99.90;;;;;;5096171;28;20032;-57
2024/01/29 00:58:44;;;;;;;231.77;99.78;;;-2.00;99.90;;;;;;5096231;28;20020;-57
2024/01/29 01:01:11;;;;;;;254.80;104.88;;;-2.00;99.90;;;;;;5096208;28;20083;-57
2024/01/29 01:03:37;;;;;;;254.02;108.72;;;-2.00;99.90;;;;;;5096073;28;20059;-57
2024/01/29 01:06:03;;;;;;;252.73;106.47;;;-2.10;99.90;;;;;;5096104;28;20034;-57
2024/01/29 01:08:29;;;;;;;253.60;107.72;;;-2.10;99.90;;;;;;5095962;28;20020;-57
2024/01/29 01:10:55;;;;;;;253.40;105.75;;;-2.10;99.90;;;;;;5095970;28;20020;-57
2024/01/29 01:13:21;;;;;;;265.35;108.82;;;-2.20;99.90;;;;;;5095803;28;20058;-57
2024/01/29 01:15:47;;;;;;;260.27;105.45;;;-2.10;99.90;;;;;;5095911;28;20428;-57
2024/01/29 01:18:12;;;;;;;242.95;101.43;;;-2.20;99.90;;;;;;5095781;28;20032;-57
2024/01/29 01:20:38;;;;;;;251.63;106.05;;;-2.30;99.90;;;;;;5095947;28;20053;-57
2024/01/29 01:23:04;;;;;;;262.13;108.25;;;-2.30;99.90;;;;;;5095946;28;20063;-57
2024/01/29 01:25:30;;;;;;;240.82;103.68;;;-2.40;99.90;;;;;;5095801;28;20422;-57
2024/01/29 01:27:56;;;;;;;240.88;102.45;;;-2.40;99.90;;;;;;5095853;28;20039;-57
2024/01/29 01:30:22;;;;;;;246.35;104.65;;;-2.40;99.90;;;;;;5095561;28;20036;-57
2024/01/29 01:32:49;;;;;;;237.25;103.32;;;-2.30;99.90;;;;;;5095758;28;20064;-57
2024/01/29 01:35:14;;;;;;;231.32;99.40;;;-2.30;99.90;;;;;;5095751;28;20035;-57
2024/01/29 01:37:40;;;;;;;212.15;91.85;;;-2.40;99.90;;;;;;5095618;28;20024;-57
2024/01/29 01:40:07;;;;;;;217.15;90.68;;;-2.40;99.90;;;;;;5095613;28;20036;-57
2024/01/29 01:42:33;;;;;;;218.02;96.00;;;-2.40;99.90;;;;;;5095613;28;20103;-57
2024/01/29 01:44:59;;;;;;;220.40;95.43;;;-2.20;99.90;;;;;;5095823;28;20074;-57
2024/01/29 01:47:25;;;;;;;215.48;92.13;;;-2.10;99.90;;;;;;5095740;28;20024;-57
2024/01/29 01:49:52;;;;;;;224.23;93.65;;;-2.10;99.90;;;;;;5095419;28;20583;-57
2024/01/29 01:52:19;;;;;;;208.05;87.22;;;-2.20;99.90;;;;;;5095653;28;20199;-57
2024/01/29 01:54:45;;;;;;;204.23;84.40;;;-2.30;99.90;;;;;;5095567;28;20508;-57
2024/01/29 01:57:12;;;;;;;204.07;86.28;;;-2.40;99.90;;;;;;5099437;28;20024;-57
2024/01/29 01:59:39;;;;;;;215.38;90.70;;;-2.50;99.90;;;;;;5099667;28;20021;-57
2024/01/29 02:02:07;;;;;;;191.60;82.82;;;-2.50;99.90;;;;;;5099632;28;20069;-57
2024/01/29 02:04:33;;;;;;;203.32;86.15;;;-2.60;99.90;;;;;;5099536;28;20063;-57
2024/01/29 02:07:00;;;;;;;251.27;109.90;;;-2.60;99.90;;;;;;5099333;28;20028;-57
2024/01/29 02:09:26;;;;;;;233.52;101.57;;;-2.70;99.90;;;;;;5099530;28;20095;-57
2024/01/29 02:11:52;;;;;;;218.40;93.55;;;-2.70;99.90;;;;;;5099235;28;20032;-57
2024/01/29 02:14:18;;;;;;;178.85;79.30;;;-2.70;99.90;;;;;;5099403;28;20035;-57
2024/01/29 02:16:44;;;;;;;194.23;83.55;;;-2.80;99.90;;;;;;5099128;28;20036;-57
2024/01/29 02:19:19;;;;;;;186.60;83.78;;;-2.80;99.90;;;;;;5099232;28;20024;-57
2024/01/29 02:21:45;;;;;;;190.88;82.82;;;-2.80;99.90;;;;;;5099366;28;20051;-57
2024/01/29 02:24:11;;;;;;;164.85;73.28;;;-2.70;99.90;;;;;;5099083;28;20028;-57
2024/01/29 02:26:37;;;;;;;165.88;73.38;;;-2.80;99.90;;;;;;5098991;28;20105;-57
2024/01/29 02:29:03;;;;;;;168.57;75.25;;;-2.70;99.90;;;;;;5099187;28;20032;-57
2024/01/29 02:31:29;;;;;;;175.60;77.72;;;-2.80;99.90;;;;;;5099011;28;20024;-57
2024/01/29 02:33:54;;;;;;;184.48;79.30;;;-2.80;99.90;;;;;;5098940;28;20032;-57
2024/01/29 02:36:20;;;;;;;180.35;79.40;;;-2.80;99.90;;;;;;5098999;28;20020;-57
2024/01/29 02:38:46;;;;;;;184.00;80.30;;;-2.80;99.90;;;;;;5098786;28;20024;-57
2024/01/29 02:41:12;;;;;;;210.18;93.13;;;-2.80;99.90;;;;;;5098787;28;20035;-57
2024/01/29 02:43:38;;;;;;;209.63;91.43;;;-2.80;99.90;;;;;;5098864;28;20486;-57
2024/01/29 02:46:04;;;;;;;192.60;85.15;;;-2.80;99.90;;;;;;5098680;28;20535;-57
2024/01/29 02:48:29;;;;;;;189.77;79.68;;;-2.80;99.90;;;;;;5098766;28;20327;-57
2024/01/29 02:50:55;;;;;;;198.80;86.85;;;-2.80;99.90;;;;;;5098696;28;20125;-57
2024/01/29 02:53:21;;;;;;;162.90;71.82;;;-2.90;99.90;;;;;;5096858;28;20028;-57
2024/01/29 02:55:47;;;;;;;155.48;69.28;;;-2.90;99.90;;;;;;5098323;28;20097;-57
2024/01/29 02:58:13;;;;;;;167.45;71.10;;;-2.90;99.90;;;;;;5098702;28;20432;-57
2024/01/29 03:00:38;;;;;;;161.73;68.80;;;-2.90;99.90;;;;;;5098512;28;20028;-57
2024/01/29 03:03:04;;;;;;;169.82;72.40;;;-3.00;99.90;;;;;;5098349;28;20028;-57
2024/01/29 03:05:31;;;;;;;148.63;62.85;;;-3.00;99.90;;;;;;5098123;28;20062;-57
2024/01/29 03:07:57;;;;;;;163.95;70.00;;;-3.10;99.90;;;;;;5098092;28;20036;-57
2024/01/29 03:10:23;;;;;;;174.82;74.75;;;-3.10;99.90;;;;;;5098397;28;20043;-57
2024/01/29 03:12:49;;;;;;;191.18;79.97;;;-3.10;99.90;;;;;;5098299;28;20101;-57
2024/01/29 03:15:15;;;;;;;225.88;92.03;;;-3.00;99.90;;;;;;5098120;28;20028;-57
2024/01/29 03:17:41;;;;;;;224.82;91.88;;;-3.00;99.90;;;;;;5097985;28;20021;-57
2024/01/29 03:20:07;;;;;;;214.82;90.03;;;-3.00;99.90;;;;;;5098239;28;20504;-57
2024/01/29 03:22:33;;;;;;;162.98;71.53;;;-3.00;99.90;;;;;;5097951;28;20397;-57
2024/01/29 03:24:59;;;;;;;162.95;69.35;;;-3.10;99.90;;;;;;5098215;28;20108;-57
2024/01/29 03:27:25;;;;;;;204.10;85.65;;;-3.10;99.90;;;;;;5098023;28;20052;-57
2024/01/29 03:29:50;;;;;;;206.38;88.82;;;-3.20;99.90;;;;;;5097871;28;20114;-57
2024/01/29 03:32:16;;;;;;;205.07;88.00;;;-3.20;99.90;;;;;;5097742;28;20381;-57
2024/01/29 03:34:43;;;;;;;273.00;115.65;;;-3.20;99.90;;;;;;5097734;28;20024;-57
2024/01/29 03:37:10;;;;;;;250.45;104.90;;;-3.30;99.90;;;;;;5097869;28;20378;-57
2024/01/29 03:39:38;;;;;;;249.68;110.65;;;-3.30;99.90;;;;;;5097637;28;20032;-57
2024/01/29 03:42:04;;;;;;;220.38;93.00;;;-3.30;99.90;;;;;;5097715;28;20154;-57
2024/01/29 03:44:30;;;;;;;182.18;77.28;;;-3.30;99.90;;;;;;5097904;28;20024;-57
2024/01/29 03:46:55;;;;;;;152.07;67.93;;;-3.30;99.90;;;;;;5097460;28;20044;-57
2024/01/29 03:49:21;;;;;;;140.27;59.58;;;-3.30;99.90;;;;;;5097668;28;20024;-57
2024/01/29 03:51:47;;;;;;;138.00;60.53;;;-3.30;99.90;;;;;;5097497;28;20024;-57
2024/01/29 03:54:13;;;;;;;182.45;82.78;;;-3.40;99.90;;;;;;5097374;28;20024;-57
2024/01/29 03:56:39;;;;;;;210.88;92.50;;;-3.30;99.90;;;;;;5097426;28;20028;-57
2024/01/29 03:59:09;;;;;;;218.25;91.28;;;-3.20;99.90;;;;;;5097460;28;20078;-57
2024/01/29 04:01:35;;;;;;;;;;;-3.10;99.90;;;;;;5097842;28;20470;-57
2024/01/29 04:04:01;;;;;;;1032.75;429.88;;;-3.20;99.90;;;;;;5097253;28;19908;-57
2024/01/29 04:06:27;;;;;;;924.33;395.27;;;-3.20;99.90;;;;;;5097067;28;20062;-57
2024/01/29 04:08:52;;;;;;;792.13;336.20;;;-3.20;99.90;;;;;;5097007;28;20032;-57
2024/01/29 04:11:18;;;;;;;571.92;217.57;;;-3.10;99.90;;;;;;5097071;28;20046;-57
2024/01/29 04:13:44;;;;;;;405.27;151.40;;;-3.30;99.90;;;;;;5097122;28;20020;-57
2024/01/29 04:16:10;;;;;;;318.70;121.88;;;-3.30;99.90;;;;;;5096833;28;20039;-57
2024/01/29 04:18:40;;;;;;;256.27;95.93;;;-3.30;99.90;;;;;;5096305;28;20032;-57
2024/01/29 04:21:07;;;;;;;273.20;104.10;;;-3.20;99.90;;;;;;5096943;28;20032;-57
2024/01/29 04:23:34;;;;;;;269.30;105.45;;;-3.20;99.90;;;;;;5096889;28;20028;-57
2024/01/29 04:26:00;;;;;;;227.18;90.18;;;-3.20;99.90;;;;;;5096814;28;20436;-57
2024/01/29 04:28:26;;;;;;;207.80;77.53;;;-3.30;99.90;;;;;;5096815;28;20023;-57
2024/01/29 04:30:52;;;;;;;214.43;88.55;;;-3.30;99.90;;;;;;5096711;28;20110;-57
2024/01/29 04:33:18;;;;;;;247.90;101.00;;;-3.30;99.90;;;;;;5096823;28;20024;-57
2024/01/29 04:35:43;;;;;;;249.25;97.60;;;-3.20;99.90;;;;;;5096466;28;20040;-57
2024/01/29 04:38:09;;;;;;;234.90;92.78;;;-3.20;99.90;;;;;;5096558;28;20027;-57
2024/01/29 04:40:39;;;;;;;185.73;79.68;;;-3.20;99.90;;;;;;5096599;28;20028;-57
2024/01/29 04:43:05;;;;;;;168.13;71.40;;;-3.10;99.90;;;;;;5096436;28;20036;-57
2024/01/29 04:45:31;;;;;;;157.77;69.78;;;-3.10;99.90;;;;;;5096452;28;20051;-57
2024/01/29 04:47:57;;;;;;;158.80;69.38;;;-3.20;99.90;;;;;;5096611;28;20036;-57
2024/01/29 04:50:23;;;;;;;158.57;67.65;;;-3.30;99.90;;;;;;5096261;28;20020;-57
2024/01/29 04:52:49;;;;;;;163.55;70.15;;;-3.30;99.90;;;;;;5096261;28;20035;-57
2024/01/29 04:55:15;;;;;;;162.48;68.22;;;-3.30;99.90;;;;;;5096287;28;20473;-57
2024/01/29 04:57:41;;;;;;;153.30;65.80;;;-3.40;99.90;;;;;;5096144;28;20461;-57
2024/01/29 05:00:08;;;;;;;170.45;75.97;;;-3.60;99.90;;;;;;5096216;28;20035;-57
2024/01/29 05:02:35;;;;;;;172.43;73.50;;;-3.60;99.90;;;;;;5096196;28;20473;-57
2024/01/29 05:05:01;;;;;;;169.82;72.70;;;-3.50;99.90;;;;;;5096082;28;20096;-57
2024/01/29 05:07:27;;;;;;;196.43;78.43;;;-3.60;99.90;;;;;;5096060;28;20032;-57
2024/01/29 05:09:54;;;;;;;218.27;87.93;;;-3.60;99.90;;;;;;5096024;28;20452;-57
2024/01/29 05:12:20;;;;;;;210.23;87.47;;;-3.70;99.90;;;;;;5095994;28;20405;-57
2024/01/29 05:14:45;;;;;;;179.43;80.28;;;-3.60;99.90;;;;;;5095772;28;20024;-57
2024/01/29 05:17:11;;;;;;;183.88;78.97;;;-3.60;99.90;;;;;;5095908;28;20148;-57
2024/01/29 05:19:40;;;;;;;183.15;74.97;;;-3.60;99.90;;;;;;5096392;28;20028;-57
2024/01/29 05:22:06;;;;;;;198.15;84.50;;;-3.60;99.90;;;;;;5095953;28;20032;-57
2024/01/29 05:24:32;;;;;;;207.70;89.22;;;-3.50;99.90;;;;;;5095832;28;20032;-57
2024/01/29 05:26:58;;;;;;;195.80;84.63;;;-3.60;99.90;;;;;;5095617;28;20042;-57
2024/01/29 05:29:24;;;;;;;208.15;90.50;;;-3.60;99.90;;;;;;5095352;28;20028;-57
2024/01/29 05:31:50;;;;;;;177.82;77.15;;;-3.60;99.90;;;;;;5095524;28;20038;-57
2024/01/29 05:34:15;;;;;;;173.07;70.15;;;-3.60;99.90;;;;;;5095624;28;20024;-57
2024/01/29 05:36:41;;;;;;;181.13;73.60;;;-3.60;99.90;;;;;;5095868;28;20039;-57
2024/01/29 05:39:07;;;;;;;210.35;88.95;;;-3.70;99.90;;;;;;5095501;28;20543;-57
2024/01/29 05:41:33;;;;;;;219.93;93.60;;;-3.70;99.90;;;;;;5095527;28;20078;-57
2024/01/29 05:43:59;;;;;;;218.00;93.15;;;-3.60;99.90;;;;;;5095623;28;20024;-57
2024/01/29 05:46:25;;;;;;;183.00;72.82;;;-3.60;99.90;;;;;;5095542;28;20038;-57
2024/01/29 05:48:50;;;;;;;149.80;60.47;;;-3.70;99.90;;;;;;5095491;28;20110;-57
2024/01/29 05:51:16;;;;;;;175.02;69.72;;;-3.80;99.90;;;;;;5095400;28;20056;-57
2024/01/29 05:53:42;;;;;;;199.73;80.65;;;-3.80;99.90;;;;;;5095352;28;20024;-57
2024/01/29 05:56:08;;;;;;;179.00;68.70;;;-3.80;99.90;;;;;;5095355;28;20024;-57
2024/01/29 05:58:36;;;;;;;158.60;61.38;;;-3.70;99.90;;;;;;5095334;28;20377;-57
2024/01/29 06:01:02;;;;;;;189.23;73.45;;;-3.70;99.90;;;;;;5095297;28;20063;-57
2024/01/29 06:03:28;;;;;;;194.68;76.38;;;-3.70;99.90;;;;;;5095379;28;20495;-57
2024/01/29 06:05:55;;;;;;;186.35;74.90;;;-3.50;99.90;;;;;;5095195;28;20098;-57
2024/01/29 06:08:21;;;;;;;236.70;93.32;;;-3.50;99.90;;;;;;5095081;28;20035;-57
2024/01/29 06:10:47;;;;;;;219.77;86.55;;;-3.50;99.90;;;;;;5095153;28;20079;-57
2024/01/29 06:13:12;;;;;;;179.70;75.75;;;-3.40;99.90;;;;;;5094842;28;20028;-57
2024/01/29 06:15:38;;;;;;;170.65;69.95;;;-3.30;99.90;;;;;;5095118;28;20115;-57
2024/01/29 06:18:07;;;;;;;165.23;67.93;;;-3.30;99.90;;;;;;5095313;28;20032;-57
2024/01/29 06:20:32;;;;;;;157.13;64.55;;;-3.30;99.90;;;;;;5095726;28;20028;-57
2024/01/29 06:22:58;;;;;;;149.32;64.63;;;-3.40;99.90;;;;;;5095235;28;20061;-57
2024/01/29 06:25:24;;;;;;;132.93;58.88;;;-3.40;99.90;;;;;;5095329;28;20390;-57
2024/01/29 06:27:50;;;;;;;163.77;67.38;;;-3.40;99.90;;;;;;5095360;28;20024;-57
2024/01/29 06:30:16;;;;;;;224.88;78.82;;;-3.40;99.90;;;;;;5094028;28;20024;-57
2024/01/29 06:32:42;;;;;;;199.23;73.13;;;-3.40;99.90;;;;;;5095186;28;20595;-57
2024/01/29 06:35:08;;;;;;;198.13;73.93;;;-3.40;99.90;;;;;;5094361;28;20082;-57
2024/01/29 06:37:34;;;;;;;266.63;84.72;;;-3.30;99.90;;;;;;5094867;28;20031;-57
2024/01/29 06:40:01;;;;;;;253.98;89.22;;;-3.30;99.90;;;;;;5094648;28;20032;-57
2024/01/29 06:42:26;;;;;;;191.30;69.53;;;-3.20;99.90;;;;;;5097532;28;20031;-57
2024/01/29 06:44:54;;;;;;;162.68;65.97;;;-3.10;99.90;;;;;;5098350;28;20398;-57
2024/01/29 06:47:19;;;;;;;172.20;66.22;;;-3.00;99.90;;;;;;5098501;28;20366;-57
2024/01/29 06:49:45;;;;;;;152.52;66.28;;;-2.50;99.90;;;;;;5098498;28;20085;-58
2024/01/29 06:52:11;;;;;;;181.70;73.20;;;-1.90;99.90;;;;;;5098585;28;20047;-58
2024/01/29 06:54:37;;;;;;;202.55;82.30;;;-1.20;99.90;;;;;;5098271;28;20169;-58
2024/01/29 06:57:06;;;;;;;215.93;84.45;;;-0.40;99.90;;;;;;5098326;28;20043;-58
2024/01/29 06:59:35;;;;;;;181.93;75.60;;;0.00;99.90;;;;;;5098503;28;20081;-58
2024/01/29 07:02:04;;;;;;;214.15;82.22;;;0.40;99.90;;;;;;5098101;28;20070;-58
2024/01/29 07:04:30;;;;;;;166.07;74.97;;;1.00;99.90;;;;;;5098394;28;20059;-58
2024/01/29 07:06:56;;;;;;;178.18;79.03;;;1.90;99.90;;;;;;5097590;28;20121;-58
2024/01/29 07:09:22;;;;;;;152.18;64.55;;;2.40;98.90;;;;;;5097972;28;20044;-58
2024/01/29 07:11:47;;;;;;;139.80;58.55;;;3.30;96.70;;;;;;5098030;28;20052;-58
2024/01/29 07:14:14;;;;;;;149.85;60.00;;;3.60;93.30;;;;;;5098171;28;20052;-58
2024/01/29 07:16:40;;;;;;;132.45;59.92;;;3.10;90.30;;;;;;5098025;28;20026;-58
2024/01/29 07:19:06;;;;;;;147.95;67.65;;;3.30;90.20;;;;;;5098079;28;20107;-58
2024/01/29 07:21:32;;;;;;;157.38;72.47;;;3.30;90.20;;;;;;5098126;28;20248;-58
2024/01/29 07:23:57;;;;;;;183.48;78.90;;;3.60;87.30;;;;;;5097883;28;20092;-58
2024/01/29 07:26:24;;;;;;;217.60;82.30;;;3.40;86.60;;;;;;5097709;28;20115;-58
2024/01/29 07:28:50;;;;;;;197.10;75.68;;;3.30;86.50;;;;;;5097915;28;20020;-58
2024/01/29 07:31:17;;;;;;;232.27;79.38;;;3.60;87.00;;;;;;5097787;28;20020;-58
2024/01/29 07:33:43;;;;;;;212.35;76.75;;;4.50;86.30;;;;;;5097798;28;20043;-59
2024/01/29 07:36:09;;;;;;;229.95;80.85;;;5.40;79.40;;;;;;5097863;28;20469;-59
2024/01/29 07:38:35;;;;;;;208.93;82.07;;;6.10;76.10;;;;;;5097319;28;20100;-58
2024/01/29 07:41:01;;;;;;;222.68;88.05;;;6.00;72.80;;;;;;5097766;28;20069;-58
2024/01/29 07:43:27;;;;;;;211.63;85.70;;;5.60;74.20;;;;;;5097709;28;20027;-58
2024/01/29 07:45:53;;;;;;;217.57;88.45;;;6.90;69.80;;;;;;5097429;28;20111;-59
2024/01/29 07:48:19;;;;;;;244.73;91.72;;;6.00;70.30;;;;;;5097641;28;20042;-59
2024/01/29 07:50:45;;;;;;;225.25;95.88;;;6.20;69.70;;;;;;5097454;28;20024;-59
2024/01/29 07:53:10;;;;;;;215.45;96.05;;;6.80;68.40;;;;;;5096561;28;20016;-58
2024/01/29 07:55:36;;;;;;;263.38;113.75;;;6.60;67.50;;;;;;5097159;28;20035;-59
2024/01/29 07:58:02;;;;;;;297.83;137.15;;;6.40;68.00;;;;;;5097295;28;20437;-59
2024/01/29 08:00:28;;;;;;;272.45;129.43;;;6.50;65.50;;;;;;5096934;28;20039;-59
2024/01/29 08:02:54;;;;;;;278.60;125.82;;;5.80;69.50;;;;;;5097137;28;20028;-58
2024/01/29 08:05:19;;;;;;;273.67;128.60;;;6.60;69.80;;;;;;5096225;28;20032;-59
2024/01/29 08:07:45;;;;;;;262.27;112.70;;;7.20;68.50;;;;;;5096931;28;20051;-58
2024/01/29 08:10:11;;;;;;;259.40;109.30;;;8.00;66.20;;;;;;5096640;28;20023;-59
2024/01/29 08:12:37;;;;;;;249.90;108.78;;;8.20;62.90;;;;;;5097177;28;20016;-59
2024/01/29 08:15:05;;;;;;;264.63;115.05;;;7.00;68.30;;;;;;5095581;28;20043;-59
2024/01/29 08:17:31;;;;;;;259.80;117.40;;;7.50;65.50;;;;;;5096590;28;20027;-59
2024/01/29 08:19:56;;;;;;;294.05;117.70;;;7.50;67.50;;;;;;5096908;28;20016;-59
2024/01/29 08:22:22;;;;;;;249.85;112.07;;;7.20;66.70;;;;;;5096004;28;20120;-59
2024/01/29 08:24:48;;;;;;;253.45;109.45;;;6.80;68.40;;;;;;5096471;28;20424;-59
2024/01/29 08:27:14;;;;;;;269.55;124.40;;;7.00;71.50;;;;;;5096509;28;20020;-59
2024/01/29 08:29:40;;;;;;;213.52;110.95;;;7.50;67.20;;;;;;5096593;28;20020;-59
2024/01/29 08:32:06;;;;;;;242.43;116.72;;;7.70;67.60;;;;;;5096416;28;20024;-59
2024/01/29 08:34:31;;;;;;;228.23;109.70;;;7.20;66.90;;;;;;5096265;28;20274;-59
2024/01/29 08:36:58;;;;;;;223.43;109.88;;;7.60;67.00;;;;;;5096545;28;20052;-59
2024/01/29 08:39:24;;;;;;;296.45;120.60;;;8.10;68.60;;;;;;5096234;28;20565;-59
2024/01/29 08:41:50;;;;;;;247.73;111.45;;;8.10;66.70;;;;;;5095854;28;20063;-59
2024/01/29 08:44:16;;;;;;;278.52;119.55;;;9.40;65.20;;;;;;5096168;28;20493;-59
2024/01/29 08:46:42;;;;;;;243.27;115.60;;;9.60;61.30;;;;;;5096207;28;20050;-59
2024/01/29 08:49:08;;;;;;;245.00;117.15;;;9.10;64.70;;;;;;5096231;28;20020;-59
2024/01/29 08:51:34;;;;;;;227.13;108.60;;;9.80;61.70;;;;;;5096419;28;20028;-59
2024/01/29 08:54:00;;;;;;;205.10;104.13;;;9.40;62.10;;;;;;5096315;28;20048;-59
2024/01/29 08:56:25;;;;;;;234.27;114.55;;;9.80;62.60;;;;;;5096812;28;20099;-59
2024/01/29 08:58:51;;;;;;;233.10;111.22;;;9.90;60.30;;;;;;5096796;28;20024;-59
2024/01/29 09:01:17;;;;;;;214.65;107.72;;;9.80;59.80;;;;;;5096029;28;20040;-59
2024/01/29 09:03:43;;;;;;;227.90;109.47;;;10.60;61.30;;;;;;5096423;28;20024;-59
2024/01/29 09:06:09;;;;;;;236.15;117.60;;;10.30;60.10;;;;;;5096489;28;20103;-59
2024/01/29 09:08:34;;;;;;;210.40;109.40;;;10.90;59.00;;;;;;5095979;28;20133;-59
2024/01/29 09:11:00;;;;;;;241.93;113.40;;;10.90;58.00;;;;;;5096174;28;20035;-59
2024/01/29 09:13:26;;;;;;;200.95;102.75;;;11.30;59.30;;;;;;5096229;28;20016;-59
2024/01/29 09:15:52;;;;;;;210.70;101.90;;;11.70;56.50;;;;;;5096425;28;20491;-59
2024/01/29 09:18:18;;;;;;;207.85;98.07;;;12.20;54.40;;;;;;5095877;28;20056;-59
2024/01/29 09:20:44;;;;;;;171.27;85.18;;;12.00;54.60;;;;;;5096345;28;20397;-59
2024/01/29 09:23:09;;;;;;;174.80;85.28;;;11.70;54.80;;;;;;5096019;28;20032;-59
2024/01/29 09:25:35;;;;;;;170.73;87.60;;;11.70;54.40;;;;;;5095715;28;20119;-59
2024/01/29 09:28:01;;;;;;;179.75;86.57;;;12.00;55.70;;;;;;5095684;28;20031;-59
2024/01/29 09:30:27;;;;;;;169.35;84.72;;;12.50;55.10;;;;;;5095680;28;20488;-59
2024/01/29 09:32:53;;;;;;;167.63;82.53;;;13.00;52.80;;;;;;5095609;28;20044;-59
2024/01/29 09:35:19;;;;;;;156.15;78.80;;;12.70;53.30;;;;;;5095635;28;20031;-59
2024/01/29 09:37:44;;;;;;;167.07;78.47;;;12.40;52.40;;;;;;5095403;28;20119;-59
2024/01/29 09:40:13;;;;;;;156.50;80.55;;;12.50;53.60;;;;;;5095495;28;20044;-59
2024/01/29 09:42:41;;;;;;;155.07;75.57;;;12.90;52.90;;;;;;5095458;28;20070;-59
2024/01/29 09:45:11;;;;;;;135.35;69.63;;;13.00;52.60;;;;;;5095356;28;20028;-59
2024/01/29 09:47:38;;;;;;;160.80;73.05;;;12.80;52.30;;;;;;5095508;28;20485;-59
2024/01/29 09:50:09;;;;;;;150.40;80.55;;;12.30;52.50;;;;;;5095283;28;20035;-59
2024/01/29 09:52:38;;;;;;;157.95;73.63;;;12.40;53.50;;;;;;5095313;28;20464;-59
2024/01/29 09:55:05;;;;;;;163.43;79.43;;;12.60;52.40;;;;;;5095455;28;20032;-59
2024/01/29 09:57:32;;;;;;;181.80;83.72;;;12.90;50.90;;;;;;5095283;28;20106;-59
2024/01/29 09:59:58;;;;;;;185.57;85.28;;;13.10;52.10;;;;;;5094537;28;20024;-59
2024/01/29 10:02:25;;;;;;;166.48;81.25;;;13.20;50.70;;;;;;5095222;28;20032;-59
2024/01/29 10:04:51;;;;;;;173.82;77.88;;;13.90;49.80;;;;;;5095115;28;20020;-59
2024/01/29 10:07:17;;;;;;;170.18;80.80;;;14.30;47.90;;;;;;5094874;28;20024;-60
2024/01/29 10:09:42;;;;;;;155.23;78.15;;;13.90;47.60;;;;;;5095215;28;20057;-59
2024/01/29 10:12:18;;;;;;;183.77;76.47;;;13.80;48.00;;;;;;5094964;28;20040;-59
2024/01/29 10:14:44;;;;;;;147.35;74.05;;;14.20;48.50;;;;;;5095371;28;20028;-59
2024/01/29 10:17:10;;;;;;;147.68;73.47;;;14.90;46.00;;;;;;5097167;28;20224;-59
2024/01/29 10:19:37;;;;;;;157.88;74.68;;;15.00;46.70;;;;;;5099200;28;20067;-59
2024/01/29 10:22:03;;;;;;;141.88;70.32;;;15.40;44.80;;;;;;5099127;28;20028;-59
2024/01/29 10:24:29;;;;;;;141.30;70.25;;;15.40;42.70;;;;;;5099041;28;20028;-59
2024/01/29 10:27:08;;;;;;;141.48;67.40;;;14.60;43.90;;;;;;5099073;28;20023;-59
2024/01/29 10:29:45;;;;;;;163.68;70.05;;;14.60;44.50;;;;;;5098907;28;20020;-59
2024/01/29 10:32:11;;;;;;;131.13;64.70;;;14.90;44.50;;;;;;5098960;28;20024;-59
2024/01/29 10:34:37;;;;;;;114.65;56.85;;;15.60;43.90;;;;;;5098550;28;20059;-60
2024/01/29 10:37:05;;;;;;;110.35;58.35;;;16.10;40.00;;;;;;5098791;28;20028;-58
2024/01/29 10:39:34;;;;;;;128.07;58.22;;;16.00;39.80;;;;;;5098583;28;20095;-57
2024/01/29 10:42:01;;;;;;;141.88;58.40;;;15.70;39.90;;;;;;5098843;28;20032;-57
2024/01/29 10:44:32;;;;;;;122.07;58.30;;;16.20;40.70;;;;;;5097305;28;20330;-57
2024/01/29 10:47:00;;;;;;;92.57;48.30;;;16.20;39.30;;;;;;5097909;28;20032;-57
2024/01/29 10:49:28;;;;;;;86.07;47.40;;;16.50;38.30;;;;;;5098016;28;20066;-58
2024/01/29 10:51:55;;;;;;;73.28;34.75;;;16.40;37.50;;;;;;5097945;28;20038;-58
2024/01/29 10:54:22;;;;;;;87.55;37.10;;;16.50;35.30;;;;;;5098683;28;20047;-58
2024/01/29 10:56:50;;;;;;;98.47;33.05;;;16.10;36.30;;;;;;5098328;28;20124;-58
2024/01/29 10:59:20;;;;;;;63.50;31.75;;;17.10;34.50;;;;;;5098386;28;20385;-58
2024/01/29 11:01:49;;;;;;;52.83;32.40;;;17.40;32.70;;;;;;5098307;28;20548;-58
2024/01/29 11:04:19;;;;;;;55.50;32.17;;;16.70;33.50;;;;;;5098408;28;20028;-58
2024/01/29 11:06:47;;;;;;;43.85;23.75;;;17.00;32.50;;;;;;5098015;28;20396;-58
2024/01/29 11:09:20;;;;;;;41.63;23.85;;;16.40;32.00;;;;;;5098263;28;20047;-58
2024/01/29 11:11:46;;;;;;;42.53;21.15;;;16.00;33.20;;;;;;5097746;28;20488;-58
2024/01/29 11:14:12;;;;;;;33.72;18.60;;;16.50;32.10;;;;;;5095629;28;20036;-58
2024/01/29 11:16:39;;;;;;;33.60;14.82;;;16.80;30.40;;;;;;5096896;28;20081;-58
2024/01/29 11:19:05;;;;;;;28.70;12.82;;;16.80;29.30;;;;;;5096816;28;20028;-58
2024/01/29 11:21:31;;;;;;;21.25;12.95;;;16.70;28.80;;;;;;5096796;28;20019;-58
2024/01/29 11:23:58;;;;;;;23.85;13.95;;;16.70;28.30;;;;;;5096232;28;20040;-58
2024/01/29 11:26:28;;;;;;;33.17;16.60;;;16.50;29.30;;;;;;5097423;28;20060;-58
2024/01/29 11:29:01;;;;;;;34.78;14.40;;;17.50;29.20;;;;;;5097030;28;20362;-58
2024/01/29 11:31:42;;;;;;;29.80;14.43;;;16.40;27.90;;;;;;5096279;28;20096;-58
2024/01/29 11:34:08;;;;;;;24.30;12.40;;;15.80;28.90;;;;;;5097328;28;20032;-58
2024/01/29 11:36:38;;;;;;;30.90;13.32;;;16.10;28.50;;;;;;5097315;28;20020;-58
2024/01/29 11:39:05;;;;;;;27.27;12.60;;;14.90;29.90;;;;;;5097252;28;20092;-58
2024/01/29 11:41:35;;;;;;;29.15;12.95;;;14.30;30.70;;;;;;5097743;28;20375;-58
2024/01/29 11:44:02;;;;;;;34.13;12.90;;;13.80;32.50;;;;;;5097752;28;20028;-57
2024/01/29 11:46:28;;;;;;;24.42;12.95;;;13.50;33.70;;;;;;5097562;28;20104;-58
2024/01/29 11:48:59;;;;;;;32.40;14.68;;;14.10;33.90;;;;;;5097464;28;20056;-57
2024/01/29 11:51:29;;;;;;;30.75;13.68;;;14.00;33.40;;;;;;5096390;28;20131;-57
2024/01/29 11:53:55;;;;;;;;;;;12.60;34.60;;;;;;5097209;28;20030;-57
2024/01/29 11:56:21;;;;;;;19.52;9.60;;;12.60;35.10;;;;;;5095763;28;20304;-57
2024/01/29 11:59:02;;;;;;;24.45;9.90;;;12.20;36.30;;;;;;5096129;28;20432;-57
2024/01/29 12:01:31;;;;;;;31.13;12.52;;;11.90;36.10;;;;;;5096672;28;20042;-57
2024/01/29 12:03:58;;;;;;;25.17;12.15;;;12.30;36.80;;;;;;5097303;28;20051;-57
2024/01/29 12:06:25;;;;;;;37.45;15.43;;;12.20;37.20;;;;;;5096790;28;20023;-57
2024/01/29 12:08:53;;;;;;;34.13;16.40;;;11.80;37.40;;;;;;5096385;28;20028;-57
2024/01/29 12:11:21;;;;;;;24.85;13.10;;;11.60;38.30;;;;;;5097038;28;20025;-58
2024/01/29 12:13:47;;;;;;;33.45;15.57;;;11.50;37.80;;;;;;5096565;28;20074;-57